sensor_id;sensor_type;location;lat;lon;timestamp;temperature;humidity
1476;DHT22;730;48.870;12.542;2024-03-23T00:54:38;12.10;1.00
1476;DHT22;730;48.870;12.542;2024-03-23T00:57:04;12.00;1.00
1476;DHT22;730;48.870;12.542;2024-03-23T00:59:30;12.00;1.00
1476;DHT22;730;48.870;12.542;2024-03-23T01:01:56;12.00;1.00
1476;DHT22;730;48.870;12.542;2024-03-23T01:04:23;11.90;1.00
1476;DHT22;730;48.870;12.542;2024-03-23T01:06:49;11.90;1.00
1476;DHT22;730;48.870;12.542;2024-03-23T01:09:15;11.80;1.00
1476;DHT22;730;48.870;12.542;2024-03-23T01:11:41;11.80;1.00
1476;DHT22;730;48.870;12.542;2024-03-23T01:14:07;11.80;1.00
1476;DHT22;730;48.870;12.542;2024-03-23T01:16:37;11.70;1.00
1476;DHT22;730;48.870;12.542;2024-03-23T01:19:03;11.70;1.00
1476;DHT22;730;48.870;12.542;2024-03-23T01:21:30;11.70;1.00
1476;DHT22;730;48.870;12.542;2024-03-23T01:23:56;11.60;1.00
1476;DHT22;730;48.870;12.542;2024-03-23T01:26:22;11.60;1.00
1476;DHT22;730;48.870;12.542;2024-03-23T01:28:48;11.50;1.00
1476;DHT22;730;48.870;12.542;2024-03-23T01:31:14;11.50;1.00
1476;DHT22;730;48.870;12.542;2024-03-23T01:33:41;11.50;1.00
1476;DHT22;730;48.870;12.542;2024-03-23T01:36:07;11.40;1.00
1476;DHT22;730;48.870;12.542;2024-03-23T01:38:34;11.40;1.00
1476;DHT22;730;48.870;12.542;2024-03-23T01:41:00;11.40;1.00
1476;DHT22;730;48.870;12.542;2024-03-23T01:43:26;11.30;1.00
1476;DHT22;730;48.870;12.542;2024-03-23T01:45:52;11.30;1.00
1476;DHT22;730;48.870;12.542;2024-03-23T01:48:22;11.20;1.00
1476;DHT22;730;48.870;12.542;2024-03-23T01:50:48;11.20;1.00
1476;DHT22;730;48.870;12.542;2024-03-23T01:53:14;11.20;1.00
1476;DHT22;730;48.870;12.542;2024-03-23T01:55:43;11.10;1.00
1476;DHT22;730;48.870;12.542;2024-03-23T01:58:09;11.10;1.00
1476;DHT22;730;48.870;12.542;2024-03-23T02:00:36;11.00;1.00
1476;DHT22;730;48.870;12.542;2024-03-23T02:03:02;11.00;1.00
1476;DHT22;730;48.870;12.542;2024-03-23T02:05:28;10.90;1.00
1476;DHT22;730;48.870;12.542;2024-03-23T02:07:55;10.90;1.00
1476;DHT22;730;48.870;12.542;2024-03-23T02:10:25;10.90;1.00
1476;DHT22;730;48.870;12.542;2024-03-23T02:12:51;10.80;1.00
1476;DHT22;730;48.870;12.542;2024-03-23T02:15:17;10.80;1.00
1476;DHT22;730;48.870;12.542;2024-03-23T02:17:43;10.80;1.00
1476;DHT22;730;48.870;12.542;2024-03-23T02:20:11;10.70;1.00
1476;DHT22;730;48.870;12.542;2024-03-23T02:22:38;10.70;1.00
1476;DHT22;730;48.870;12.542;2024-03-23T02:25:05;10.70;1.00
1476;DHT22;730;48.870;12.542;2024-03-23T02:27:32;10.70;1.00
1476;DHT22;730;48.870;12.542;2024-03-23T02:29:58;10.60;1.00
1476;DHT22;730;48.870;12.542;2024-03-23T02:32:25;10.60;1.00
1476;DHT22;730;48.870;12.542;2024-03-23T02:34:51;10.70;1.00
1476;DHT22;730;48.870;12.542;2024-03-23T02:37:17;10.60;1.00
1476;DHT22;730;48.870;12.542;2024-03-23T02:39:43;10.60;1.00
1476;DHT22;730;48.870;12.542;2024-03-23T02:42:09;10.60;1.00
1476;DHT22;730;48.870;12.542;2024-03-23T02:44:35;10.60;1.00
1476;DHT22;730;48.870;12.542;2024-03-23T02:47:01;10.50;1.00
1476;DHT22;730;48.870;12.542;2024-03-23T02:49:27;10.50;1.00
1476;DHT22;730;48.870;12.542;2024-03-23T02:51:53;10.50;1.00
1476;DHT22;730;48.870;12.542;2024-03-23T02:54:20;10.50;1.00
1476;DHT22;730;48.870;12.542;2024-03-23T02:56:46;10.50;1.00
1476;DHT22;730;48.870;12.542;2024-03-23T02:59:12;10.50;1.00
1476;DHT22;730;48.870;12.542;2024-03-23T03:01:38;10.40;1.00
1476;DHT22;730;48.870;12.542;2024-03-23T03:04:04;10.40;1.00
1476;DHT22;730;48.870;12.542;2024-03-23T03:06:31;10.30;1.00
1476;DHT22;730;48.870;12.542;2024-03-23T03:08:57;10.30;1.00
1476;DHT22;730;48.870;12.542;2024-03-23T03:11:23;10.30;1.00
1476;DHT22;730;48.870;12.542;2024-03-23T03:13:49;10.20;1.00
1476;DHT22;730;48.870;12.542;2024-03-23T03:16:15;10.20;1.00
1476;DHT22;730;48.870;12.542;2024-03-23T03:18:41;10.10;1.00
1476;DHT22;730;48.870;12.542;2024-03-23T03:21:07;10.00;1.00
1476;DHT22;730;48.870;12.542;2024-03-23T03:23:40;10.00;1.00
1476;DHT22;730;48.870;12.542;2024-03-23T03:26:06;10.00;1.00
1476;DHT22;730;48.870;12.542;2024-03-23T03:28:32;9.90;1.00
1476;DHT22;730;48.870;12.542;2024-03-23T03:30:59;9.90;1.00
1476;DHT22;730;48.870;12.542;2024-03-23T03:33:29;9.80;1.00
1476;DHT22;730;48.870;12.542;2024-03-23T03:35:55;9.80;1.00
1476;DHT22;730;48.870;12.542;2024-03-23T03:38:21;9.80;1.00
1476;DHT22;730;48.870;12.542;2024-03-23T03:40:47;9.80;1.00
1476;DHT22;730;48.870;12.542;2024-03-23T03:43:13;9.70;1.00
1476;DHT22;730;48.870;12.542;2024-03-23T03:45:40;9.70;1.00
1476;DHT22;730;48.870;12.542;2024-03-23T03:48:06;9.60;1.00
1476;DHT22;730;48.870;12.542;2024-03-23T03:50:33;9.60;1.00
1476;DHT22;730;48.870;12.542;2024-03-23T03:52:59;9.60;1.00
1476;DHT22;730;48.870;12.542;2024-03-23T03:55:25;9.60;1.00
1476;DHT22;730;48.870;12.542;2024-03-23T03:57:51;9.50;1.00
1476;DHT22;730;48.870;12.542;2024-03-23T04:00:17;9.50;1.00
1476;DHT22;730;48.870;12.542;2024-03-23T04:02:43;9.50;1.00
1476;DHT22;730;48.870;12.542;2024-03-23T04:05:09;9.50;1.00
1476;DHT22;730;48.870;12.542;2024-03-23T04:07:35;9.50;1.00
1476;DHT22;730;48.870;12.542;2024-03-23T04:10:01;9.50;1.00
1476;DHT22;730;48.870;12.542;2024-03-23T04:12:28;9.50;1.00
1476;DHT22;730;48.870;12.542;2024-03-23T04:14:54;9.50;1.00
1476;DHT22;730;48.870;12.542;2024-03-23T04:17:20;9.50;1.00
1476;DHT22;730;48.870;12.542;2024-03-23T04:19:48;9.40;1.00
1476;DHT22;730;48.870;12.542;2024-03-23T04:22:15;9.40;1.00
1476;DHT22;730;48.870;12.542;2024-03-23T04:24:42;9.40;1.00
1476;DHT22;730;48.870;12.542;2024-03-23T04:27:09;9.40;1.00
1476;DHT22;730;48.870;12.542;2024-03-23T04:29:35;9.40;1.00
1476;DHT22;730;48.870;12.542;2024-03-23T04:32:01;9.40;1.00
1476;DHT22;730;48.870;12.542;2024-03-23T04:34:27;9.40;1.00
1476;DHT22;730;48.870;12.542;2024-03-23T04:36:53;9.40;1.00
1476;DHT22;730;48.870;12.542;2024-03-23T04:39:19;9.40;1.00
1476;DHT22;730;48.870;12.542;2024-03-23T04:41:45;9.40;1.00
1476;DHT22;730;48.870;12.542;2024-03-23T04:44:11;9.40;1.00
1476;DHT22;730;48.870;12.542;2024-03-23T04:46:37;9.40;1.00
1476;DHT22;730;48.870;12.542;2024-03-23T04:49:03;9.50;1.00
1476;DHT22;730;48.870;12.542;2024-03-23T04:51:35;9.50;1.00
1476;DHT22;730;48.870;12.542;2024-03-23T04:54:03;9.50;1.00
1476;DHT22;730;48.870;12.542;2024-03-23T04:56:30;9.50;1.00
1476;DHT22;730;48.870;12.542;2024-03-23T04:58:57;9.50;1.00
1476;DHT22;730;48.870;12.542;2024-03-23T05:01:27;9.50;1.00
1476;DHT22;730;48.870;12.542;2024-03-23T05:03:53;9.50;1.00
1476;DHT22;730;48.870;12.542;2024-03-23T05:06:19;9.50;1.00
1476;DHT22;730;48.870;12.542;2024-03-23T05:08:45;9.50;1.00
1476;DHT22;730;48.870;12.542;2024-03-23T05:11:12;9.60;1.00
1476;DHT22;730;48.870;12.542;2024-03-23T05:13:38;9.50;1.00
1476;DHT22;730;48.870;12.542;2024-03-23T05:16:04;9.50;1.00
1476;DHT22;730;48.870;12.542;2024-03-23T05:18:30;9.60;1.00
1476;DHT22;730;48.870;12.542;2024-03-23T05:20:57;9.60;1.00
1476;DHT22;730;48.870;12.542;2024-03-23T05:23:24;9.60;1.00
1476;DHT22;730;48.870;12.542;2024-03-23T05:25:50;9.60;1.00
1476;DHT22;730;48.870;12.542;2024-03-23T05:28:18;9.60;1.00
1476;DHT22;730;48.870;12.542;2024-03-23T05:30:49;9.60;1.00
1476;DHT22;730;48.870;12.542;2024-03-23T05:33:15;9.70;1.00
1476;DHT22;730;48.870;12.542;2024-03-23T05:35:42;9.70;1.00
1476;DHT22;730;48.870;12.542;2024-03-23T05:38:08;9.70;1.00
1476;DHT22;730;48.870;12.542;2024-03-23T05:40:34;9.70;1.00
1476;DHT22;730;48.870;12.542;2024-03-23T05:43:03;9.80;1.00
1476;DHT22;730;48.870;12.542;2024-03-23T05:45:35;9.80;1.00
1476;DHT22;730;48.870;12.542;2024-03-23T05:48:01;9.80;1.00
1476;DHT22;730;48.870;12.542;2024-03-23T05:50:27;9.80;1.00
1476;DHT22;730;48.870;12.542;2024-03-23T05:52:53;9.90;1.00
1476;DHT22;730;48.870;12.542;2024-03-23T05:55:19;9.90;1.00
1476;DHT22;730;48.870;12.542;2024-03-23T05:57:45;9.90;1.00
1476;DHT22;730;48.870;12.542;2024-03-23T06:00:12;10.00;1.00
1476;DHT22;730;48.870;12.542;2024-03-23T06:02:43;10.00;1.00
1476;DHT22;730;48.870;12.542;2024-03-23T06:05:12;10.10;1.00
1476;DHT22;730;48.870;12.542;2024-03-23T06:07:38;10.10;1.00
1476;DHT22;730;48.870;12.542;2024-03-23T06:10:05;10.10;1.00
1476;DHT22;730;48.870;12.542;2024-03-23T06:12:31;10.10;1.00
1476;DHT22;730;48.870;12.542;2024-03-23T06:14:58;10.20;1.00
1476;DHT22;730;48.870;12.542;2024-03-23T06:17:24;10.20;1.00
1476;DHT22;730;48.870;12.542;2024-03-23T06:19:50;10.20;1.00
1476;DHT22;730;48.870;12.542;2024-03-23T06:22:16;10.20;1.00
1476;DHT22;730;48.870;12.542;2024-03-23T06:24:59;10.20;1.00
1476;DHT22;730;48.870;12.542;2024-03-23T06:27:25;10.30;1.00
1476;DHT22;730;48.870;12.542;2024-03-23T06:29:51;10.30;1.00
1476;DHT22;730;48.870;12.542;2024-03-23T06:32:18;10.30;1.00
1476;DHT22;730;48.870;12.542;2024-03-23T06:34:44;10.30;1.00
1476;DHT22;730;48.870;12.542;2024-03-23T06:37:20;10.40;1.00
1476;DHT22;730;48.870;12.542;2024-03-23T06:39:46;10.40;1.00
1476;DHT22;730;48.870;12.542;2024-03-23T06:42:13;10.40;1.00
1476;DHT22;730;48.870;12.542;2024-03-23T06:44:39;10.50;1.00
1476;DHT22;730;48.870;12.542;2024-03-23T06:47:05;10.60;1.00
1476;DHT22;730;48.870;12.542;2024-03-23T06:49:32;10.70;1.00
1476;DHT22;730;48.870;12.542;2024-03-23T06:51:58;10.90;1.00
1476;DHT22;730;48.870;12.542;2024-03-23T06:54:24;11.10;1.00
1476;DHT22;730;48.870;12.542;2024-03-23T06:56:51;11.40;1.00
1476;DHT22;730;48.870;12.542;2024-03-23T06:59:18;11.70;1.00
1476;DHT22;730;48.870;12.542;2024-03-23T07:01:44;12.00;1.00
1476;DHT22;730;48.870;12.542;2024-03-23T07:04:10;12.40;1.00
1476;DHT22;730;48.870;12.542;2024-03-23T07:06:42;12.70;1.00
1476;DHT22;730;48.870;12.542;2024-03-23T07:09:09;13.10;1.00
1476;DHT22;730;48.870;12.542;2024-03-23T07:11:35;13.50;1.00
1476;DHT22;730;48.870;12.542;2024-03-23T07:14:01;14.00;1.00
1476;DHT22;730;48.870;12.542;2024-03-23T07:16:28;14.30;1.00
1476;DHT22;730;48.870;12.542;2024-03-23T07:18:54;14.60;1.00
1476;DHT22;730;48.870;12.542;2024-03-23T07:21:21;14.90;1.00
1476;DHT22;730;48.870;12.542;2024-03-23T07:23:48;15.30;1.00
1476;DHT22;730;48.870;12.542;2024-03-23T07:26:14;15.60;1.00
1476;DHT22;730;48.870;12.542;2024-03-23T07:28:40;16.00;1.00
1476;DHT22;730;48.870;12.542;2024-03-23T07:31:11;16.20;1.00
1476;DHT22;730;48.870;12.542;2024-03-23T07:33:42;16.60;1.00
1476;DHT22;730;48.870;12.542;2024-03-23T07:36:09;17.00;1.00
1476;DHT22;730;48.870;12.542;2024-03-23T07:38:35;17.30;1.00
1476;DHT22;730;48.870;12.542;2024-03-23T07:41:05;17.50;1.00
1476;DHT22;730;48.870;12.542;2024-03-23T07:43:32;17.70;1.00
1476;DHT22;730;48.870;12.542;2024-03-23T07:45:58;17.90;1.00
1476;DHT22;730;48.870;12.542;2024-03-23T07:48:25;18.00;1.00
1476;DHT22;730;48.870;12.542;2024-03-23T07:51:02;18.00;1.00
1476;DHT22;730;48.870;12.542;2024-03-23T07:53:30;18.00;1.00
1476;DHT22;730;48.870;12.542;2024-03-23T07:56:10;18.00;1.00
1476;DHT22;730;48.870;12.542;2024-03-23T07:58:36;18.00;1.00
1476;DHT22;730;48.870;12.542;2024-03-23T08:01:11;17.90;1.00
1476;DHT22;730;48.870;12.542;2024-03-23T08:03:39;17.80;1.00
1476;DHT22;730;48.870;12.542;2024-03-23T08:06:18;17.70;1.00
1476;DHT22;730;48.870;12.542;2024-03-23T08:08:50;17.60;1.00
1476;DHT22;730;48.870;12.542;2024-03-23T08:11:17;17.50;1.00
1476;DHT22;730;48.870;12.542;2024-03-23T08:13:45;17.40;1.00
1476;DHT22;730;48.870;12.542;2024-03-23T08:16:11;17.30;1.00
1476;DHT22;730;48.870;12.542;2024-03-23T08:18:40;17.00;1.00
1476;DHT22;730;48.870;12.542;2024-03-23T08:21:06;16.50;1.00
1476;DHT22;730;48.870;12.542;2024-03-23T08:23:34;16.00;1.00
1476;DHT22;730;48.870;12.542;2024-03-23T08:26:03;15.70;1.00
1476;DHT22;730;48.870;12.542;2024-03-23T08:28:29;15.30;1.00
1476;DHT22;730;48.870;12.542;2024-03-23T08:30:56;14.70;1.00
1476;DHT22;730;48.870;12.542;2024-03-23T08:33:23;14.30;1.00
1476;DHT22;730;48.870;12.542;2024-03-23T08:36:00;13.90;1.00
1476;DHT22;730;48.870;12.542;2024-03-23T08:38:31;13.50;1.00
1476;DHT22;730;48.870;12.542;2024-03-23T08:41:02;13.30;1.00
1476;DHT22;730;48.870;12.542;2024-03-23T08:43:41;13.10;1.00
1476;DHT22;730;48.870;12.542;2024-03-23T08:46:15;12.90;1.00
1476;DHT22;730;48.870;12.542;2024-03-23T08:48:45;12.80;1.00
1476;DHT22;730;48.870;12.542;2024-03-23T08:51:13;12.70;1.00
1476;DHT22;730;48.870;12.542;2024-03-23T08:53:40;12.60;1.00
1476;DHT22;730;48.870;12.542;2024-03-23T08:56:07;12.50;1.00
1476;DHT22;730;48.870;12.542;2024-03-23T08:58:34;12.40;1.00
1476;DHT22;730;48.870;12.542;2024-03-23T09:01:12;12.40;1.00
1476;DHT22;730;48.870;12.542;2024-03-23T09:03:41;12.30;1.00
1476;DHT22;730;48.870;12.542;2024-03-23T09:06:09;12.30;1.00
1476;DHT22;730;48.870;12.542;2024-03-23T09:08:35;12.20;1.00
1476;DHT22;730;48.870;12.542;2024-03-23T09:11:10;12.10;1.00
1476;DHT22;730;48.870;12.542;2024-03-23T09:13:37;12.00;1.00
1476;DHT22;730;48.870;12.542;2024-03-23T09:16:05;12.00;1.00
1476;DHT22;730;48.870;12.542;2024-03-23T09:18:35;12.00;1.00
1476;DHT22;730;48.870;12.542;2024-03-23T09:21:02;11.90;1.00
1476;DHT22;730;48.870;12.542;2024-03-23T09:23:28;11.90;1.00
1476;DHT22;730;48.870;12.542;2024-03-23T09:25:54;11.90;1.00
1476;DHT22;730;48.870;12.542;2024-03-23T09:28:21;11.80;1.00
1476;DHT22;730;48.870;12.542;2024-03-23T09:30:47;11.80;1.00
1476;DHT22;730;48.870;12.542;2024-03-23T09:33:13;11.70;1.00
1476;DHT22;730;48.870;12.542;2024-03-23T09:35:40;11.70;1.00
1476;DHT22;730;48.870;12.542;2024-03-23T09:38:16;11.70;1.00
1476;DHT22;730;48.870;12.542;2024-03-23T09:40:43;11.60;1.00
1476;DHT22;730;48.870;12.542;2024-03-23T09:43:09;11.70;1.00
1476;DHT22;730;48.870;12.542;2024-03-23T09:45:39;11.70;1.00
1476;DHT22;730;48.870;12.542;2024-03-23T09:48:09;11.70;1.00
1476;DHT22;730;48.870;12.542;2024-03-23T09:50:39;11.70;1.00
1476;DHT22;730;48.870;12.542;2024-03-23T09:53:13;11.70;1.00
1476;DHT22;730;48.870;12.542;2024-03-23T09:55:43;11.70;1.00
1476;DHT22;730;48.870;12.542;2024-03-23T09:58:13;11.70;1.00
1476;DHT22;730;48.870;12.542;2024-03-23T10:00:39;11.70;1.00
1476;DHT22;730;48.870;12.542;2024-03-23T10:03:06;11.80;1.00
1476;DHT22;730;48.870;12.542;2024-03-23T10:05:33;11.80;1.00
1476;DHT22;730;48.870;12.542;2024-03-23T10:10:43;11.90;1.00
1476;DHT22;730;48.870;12.542;2024-03-23T10:13:10;12.00;1.00
1476;DHT22;730;48.870;12.542;2024-03-23T10:15:38;12.00;1.00
1476;DHT22;730;48.870;12.542;2024-03-23T10:18:20;12.10;1.00
1476;DHT22;730;48.870;12.542;2024-03-23T10:23:32;12.10;1.00
1476;DHT22;730;48.870;12.542;2024-03-23T10:26:21;12.10;1.00
1476;DHT22;730;48.870;12.542;2024-03-23T10:31:25;12.10;1.00
1476;DHT22;730;48.870;12.542;2024-03-23T10:33:52;12.10;1.00
1476;DHT22;730;48.870;12.542;2024-03-23T10:36:23;12.10;1.00
1476;DHT22;730;48.870;12.542;2024-03-23T10:38:50;12.20;1.00
1476;DHT22;730;48.870;12.542;2024-03-23T10:41:18;12.20;1.00
1476;DHT22;730;48.870;12.542;2024-03-23T10:43:46;12.20;1.00
1476;DHT22;730;48.870;12.542;2024-03-23T10:46:12;12.30;1.00
1476;DHT22;730;48.870;12.542;2024-03-23T10:48:38;12.30;1.00
1476;DHT22;730;48.870;12.542;2024-03-23T10:51:08;12.40;1.00
1476;DHT22;730;48.870;12.542;2024-03-23T10:53:35;12.30;1.00
1476;DHT22;730;48.870;12.542;2024-03-23T10:56:03;12.30;1.00
1476;DHT22;730;48.870;12.542;2024-03-23T10:58:33;12.30;1.00
1476;DHT22;730;48.870;12.542;2024-03-23T11:01:02;12.30;1.00
1476;DHT22;730;48.870;12.542;2024-03-23T11:03:36;12.20;1.00
1476;DHT22;730;48.870;12.542;2024-03-23T11:06:03;12.10;1.00
1476;DHT22;730;48.870;12.542;2024-03-23T11:08:36;12.10;1.00
1476;DHT22;730;48.870;12.542;2024-03-23T11:11:21;12.20;1.00
1476;DHT22;730;48.870;12.542;2024-03-23T11:13:54;12.20;1.00
1476;DHT22;730;48.870;12.542;2024-03-23T11:16:28;12.30;1.00
1476;DHT22;730;48.870;12.542;2024-03-23T11:19:38;12.40;1.00
1476;DHT22;730;48.870;12.542;2024-03-23T11:22:05;12.50;1.00
1476;DHT22;730;48.870;12.542;2024-03-23T11:24:31;12.60;1.00
1476;DHT22;730;48.870;12.542;2024-03-23T11:26:57;12.70;1.00
1476;DHT22;730;48.870;12.542;2024-03-23T11:29:29;12.90;1.00
1476;DHT22;730;48.870;12.542;2024-03-23T11:31:56;13.00;1.00
1476;DHT22;730;48.870;12.542;2024-03-23T11:34:22;13.20;1.00
1476;DHT22;730;48.870;12.542;2024-03-23T11:36:49;13.30;1.00
1476;DHT22;730;48.870;12.542;2024-03-23T11:39:19;13.20;1.00
1476;DHT22;730;48.870;12.542;2024-03-23T11:41:50;13.20;1.00
1476;DHT22;730;48.870;12.542;2024-03-23T11:44:21;13.10;1.00
1476;DHT22;730;48.870;12.542;2024-03-23T11:46:51;13.00;1.00
1476;DHT22;730;48.870;12.542;2024-03-23T11:49:29;12.90;1.00
1476;DHT22;730;48.870;12.542;2024-03-23T11:51:56;12.90;1.00
1476;DHT22;730;48.870;12.542;2024-03-23T11:54:24;12.80;1.00
1476;DHT22;730;48.870;12.542;2024-03-23T11:57:00;12.70;1.00
1476;DHT22;730;48.870;12.542;2024-03-23T11:59:36;12.60;1.00
1476;DHT22;730;48.870;12.542;2024-03-23T12:02:21;12.50;1.00
1476;DHT22;730;48.870;12.542;2024-03-23T12:04:47;12.40;1.00
1476;DHT22;730;48.870;12.542;2024-03-23T12:07:15;12.30;1.00
1476;DHT22;730;48.870;12.542;2024-03-23T12:09:41;12.20;1.00
1476;DHT22;730;48.870;12.542;2024-03-23T12:12:10;12.30;1.00
1476;DHT22;730;48.870;12.542;2024-03-23T12:14:36;12.30;1.00
1476;DHT22;730;48.870;12.542;2024-03-23T12:17:13;12.20;1.00
1476;DHT22;730;48.870;12.542;2024-03-23T12:19:40;12.20;1.00
1476;DHT22;730;48.870;12.542;2024-03-23T12:22:08;12.10;1.00
1476;DHT22;730;48.870;12.542;2024-03-23T12:24:35;12.10;1.00
1476;DHT22;730;48.870;12.542;2024-03-23T12:27:05;12.20;1.00
1476;DHT22;730;48.870;12.542;2024-03-23T12:29:31;12.30;1.00
1476;DHT22;730;48.870;12.542;2024-03-23T12:32:02;12.40;1.00
1476;DHT22;730;48.870;12.542;2024-03-23T12:34:29;12.30;1.00
1476;DHT22;730;48.870;12.542;2024-03-23T12:36:56;12.40;1.00
1476;DHT22;730;48.870;12.542;2024-03-23T12:39:22;12.40;1.00
1476;DHT22;730;48.870;12.542;2024-03-23T12:41:49;12.40;1.00
1476;DHT22;730;48.870;12.542;2024-03-23T12:44:15;12.40;1.00
1476;DHT22;730;48.870;12.542;2024-03-23T12:46:42;12.40;1.00
1476;DHT22;730;48.870;12.542;2024-03-23T12:49:08;12.30;1.00
1476;DHT22;730;48.870;12.542;2024-03-23T12:51:34;12.30;1.00
1476;DHT22;730;48.870;12.542;2024-03-23T12:54:00;12.40;1.00
1476;DHT22;730;48.870;12.542;2024-03-23T12:56:26;12.40;1.00
1476;DHT22;730;48.870;12.542;2024-03-23T12:58:54;12.40;1.00
1476;DHT22;730;48.870;12.542;2024-03-23T13:01:26;12.40;1.00
1476;DHT22;730;48.870;12.542;2024-03-23T13:03:52;12.40;1.00
1476;DHT22;730;48.870;12.542;2024-03-23T13:06:18;12.30;1.00
1476;DHT22;730;48.870;12.542;2024-03-23T13:08:45;12.20;1.00
1476;DHT22;730;48.870;12.542;2024-03-23T13:11:12;12.10;1.00
1476;DHT22;730;48.870;12.542;2024-03-23T13:13:40;12.00;1.00
1476;DHT22;730;48.870;12.542;2024-03-23T13:16:06;12.00;1.00
1476;DHT22;730;48.870;12.542;2024-03-23T13:18:32;12.00;1.00
1476;DHT22;730;48.870;12.542;2024-03-23T13:20:58;11.90;1.00
1476;DHT22;730;48.870;12.542;2024-03-23T13:23:24;11.90;1.00
1476;DHT22;730;48.870;12.542;2024-03-23T13:25:54;11.80;1.00
1476;DHT22;730;48.870;12.542;2024-03-23T13:28:21;11.70;1.00
1476;DHT22;730;48.870;12.542;2024-03-23T13:30:55;11.60;1.00
1476;DHT22;730;48.870;12.542;2024-03-23T13:33:21;11.60;1.00
1476;DHT22;730;48.870;12.542;2024-03-23T13:35:53;11.50;1.00
1476;DHT22;730;48.870;12.542;2024-03-23T13:38:20;11.50;1.00
1476;DHT22;730;48.870;12.542;2024-03-23T13:40:54;11.40;1.00
1476;DHT22;730;48.870;12.542;2024-03-23T13:43:20;11.40;1.00
1476;DHT22;730;48.870;12.542;2024-03-23T13:45:47;11.30;1.00
1476;DHT22;730;48.870;12.542;2024-03-23T13:48:21;11.20;1.00
1476;DHT22;730;48.870;12.542;2024-03-23T13:50:57;11.20;1.00
1476;DHT22;730;48.870;12.542;2024-03-23T13:53:23;11.20;1.00
1476;DHT22;730;48.870;12.542;2024-03-23T13:55:49;11.20;1.00
1476;DHT22;730;48.870;12.542;2024-03-23T13:58:16;11.20;1.00
1476;DHT22;730;48.870;12.542;2024-03-23T14:00:42;11.20;1.00
1476;DHT22;730;48.870;12.542;2024-03-23T14:03:11;11.20;1.00
1476;DHT22;730;48.870;12.542;2024-03-23T14:05:38;11.20;1.00
1476;DHT22;730;48.870;12.542;2024-03-23T14:08:08;11.30;1.00
1476;DHT22;730;48.870;12.542;2024-03-23T14:10:35;11.20;1.00
1476;DHT22;730;48.870;12.542;2024-03-23T14:13:05;11.30;1.00
1476;DHT22;730;48.870;12.542;2024-03-23T14:15:31;11.30;1.00
1476;DHT22;730;48.870;12.542;2024-03-23T14:17:57;11.30;1.00
1476;DHT22;730;48.870;12.542;2024-03-23T14:20:24;11.30;1.00
1476;DHT22;730;48.870;12.542;2024-03-23T14:22:50;11.30;1.00
1476;DHT22;730;48.870;12.542;2024-03-23T14:25:16;11.30;1.00
1476;DHT22;730;48.870;12.542;2024-03-23T14:27:46;11.40;1.00
1476;DHT22;730;48.870;12.542;2024-03-23T14:30:12;11.40;1.00
1476;DHT22;730;48.870;12.542;2024-03-23T14:32:39;11.40;1.00
1476;DHT22;730;48.870;12.542;2024-03-23T14:35:06;11.40;1.00
1476;DHT22;730;48.870;12.542;2024-03-23T14:37:34;11.40;1.00
1476;DHT22;730;48.870;12.542;2024-03-23T14:40:00;11.40;1.00
1476;DHT22;730;48.870;12.542;2024-03-23T14:42:26;11.40;1.00
1476;DHT22;730;48.870;12.542;2024-03-23T14:44:53;11.40;1.00
1476;DHT22;730;48.870;12.542;2024-03-23T14:47:19;11.40;1.00
1476;DHT22;730;48.870;12.542;2024-03-23T14:49:46;11.40;1.00
1476;DHT22;730;48.870;12.542;2024-03-23T14:52:16;11.40;1.00
1476;DHT22;730;48.870;12.542;2024-03-23T14:54:43;11.40;1.00
1476;DHT22;730;48.870;12.542;2024-03-23T14:57:10;11.40;1.00
1476;DHT22;730;48.870;12.542;2024-03-23T14:59:36;11.40;1.00
1476;DHT22;730;48.870;12.542;2024-03-23T15:02:04;11.40;1.00
1476;DHT22;730;48.870;12.542;2024-03-23T15:04:30;11.40;1.00
1476;DHT22;730;48.870;12.542;2024-03-23T15:06:56;11.40;1.00
1476;DHT22;730;48.870;12.542;2024-03-23T15:09:22;11.40;1.00
1476;DHT22;730;48.870;12.542;2024-03-23T15:11:48;11.40;1.00
1476;DHT22;730;48.870;12.542;2024-03-23T15:14:15;11.40;1.00
1476;DHT22;730;48.870;12.542;2024-03-23T15:16:41;11.40;1.00
1476;DHT22;730;48.870;12.542;2024-03-23T15:19:08;11.40;1.00
1476;DHT22;730;48.870;12.542;2024-03-23T15:21:34;11.30;1.00
1476;DHT22;730;48.870;12.542;2024-03-23T15:24:00;11.20;1.00
1476;DHT22;730;48.870;12.542;2024-03-23T15:26:27;11.20;1.00
1476;DHT22;730;48.870;12.542;2024-03-23T15:28:53;11.20;1.00
1476;DHT22;730;48.870;12.542;2024-03-23T15:31:25;11.20;1.00
1476;DHT22;730;48.870;12.542;2024-03-23T15:33:51;11.20;1.00
1476;DHT22;730;48.870;12.542;2024-03-23T15:36:18;11.10;1.00
1476;DHT22;730;48.870;12.542;2024-03-23T15:38:44;11.10;1.00
1476;DHT22;730;48.870;12.542;2024-03-23T15:41:10;11.00;1.00
1476;DHT22;730;48.870;12.542;2024-03-23T15:43:37;10.80;1.00
1476;DHT22;730;48.870;12.542;2024-03-23T15:46:05;10.60;1.00
1476;DHT22;730;48.870;12.542;2024-03-23T15:48:32;10.60;1.00
1476;DHT22;730;48.870;12.542;2024-03-23T15:51:03;10.50;1.00
1476;DHT22;730;48.870;12.542;2024-03-23T15:53:32;10.40;1.00
1476;DHT22;730;48.870;12.542;2024-03-23T15:56:00;10.30;1.00
1476;DHT22;730;48.870;12.542;2024-03-23T15:58:29;10.20;1.00
1476;DHT22;730;48.870;12.542;2024-03-23T16:01:06;10.20;1.00
1476;DHT22;730;48.870;12.542;2024-03-23T16:03:32;10.20;1.00
1476;DHT22;730;48.870;12.542;2024-03-23T16:06:06;10.20;1.00
1476;DHT22;730;48.870;12.542;2024-03-23T16:08:35;10.20;1.00
1476;DHT22;730;48.870;12.542;2024-03-23T16:11:02;10.30;1.00
1476;DHT22;730;48.870;12.542;2024-03-23T16:13:29;10.40;1.00
1476;DHT22;730;48.870;12.542;2024-03-23T16:15:59;10.40;1.00
1476;DHT22;730;48.870;12.542;2024-03-23T16:18:26;10.40;1.00
1476;DHT22;730;48.870;12.542;2024-03-23T16:20:55;10.40;1.00
1476;DHT22;730;48.870;12.542;2024-03-23T16:23:22;10.30;1.00
1476;DHT22;730;48.870;12.542;2024-03-23T16:25:54;10.20;1.00
1476;DHT22;730;48.870;12.542;2024-03-23T16:28:27;10.10;1.00
1476;DHT22;730;48.870;12.542;2024-03-23T16:30:57;10.00;1.00
1476;DHT22;730;48.870;12.542;2024-03-23T16:33:24;10.10;1.00
1476;DHT22;730;48.870;12.542;2024-03-23T16:35:59;10.00;1.00
1476;DHT22;730;48.870;12.542;2024-03-23T16:38:27;10.00;1.00
1476;DHT22;730;48.870;12.542;2024-03-23T16:40:55;10.00;1.00
1476;DHT22;730;48.870;12.542;2024-03-23T16:43:21;9.90;1.00
1476;DHT22;730;48.870;12.542;2024-03-23T16:45:58;9.80;1.00
1476;DHT22;730;48.870;12.542;2024-03-23T16:48:25;9.80;1.00
1476;DHT22;730;48.870;12.542;2024-03-23T16:50:52;9.80;1.00
1476;DHT22;730;48.870;12.542;2024-03-23T16:53:19;9.70;1.00
1476;DHT22;730;48.870;12.542;2024-03-23T16:55:45;9.50;1.00
1476;DHT22;730;48.870;12.542;2024-03-23T16:58:11;9.50;1.00
1476;DHT22;730;48.870;12.542;2024-03-23T17:00:37;9.40;1.00
1476;DHT22;730;48.870;12.542;2024-03-23T17:03:04;9.30;1.00
1476;DHT22;730;48.870;12.542;2024-03-23T17:05:36;9.30;1.00
1476;DHT22;730;48.870;12.542;2024-03-23T17:08:03;9.30;1.00
1476;DHT22;730;48.870;12.542;2024-03-23T17:10:29;9.30;1.00
1476;DHT22;730;48.870;12.542;2024-03-23T17:12:55;9.20;1.00
1476;DHT22;730;48.870;12.542;2024-03-23T17:15:21;9.20;1.00
1476;DHT22;730;48.870;12.542;2024-03-23T17:17:48;9.20;1.00
1476;DHT22;730;48.870;12.542;2024-03-23T17:20:14;9.20;1.00
1476;DHT22;730;48.870;12.542;2024-03-23T17:22:41;9.30;1.00
1476;DHT22;730;48.870;12.542;2024-03-23T17:25:07;9.30;1.00
1476;DHT22;730;48.870;12.542;2024-03-23T17:27:34;9.10;1.00